sensor_id;sensor_type;location;lat;lon;timestamp;temperature;humidity
30385;DHT22;17181;51.002;4.096;2024-01-30T00:01:55;11.70;99.90
30385;DHT22;17181;51.002;4.096;2024-01-30T00:04:21;11.70;99.90
30385;DHT22;17181;51.002;4.096;2024-01-30T00:06:47;11.70;99.90
30385;DHT22;17181;51.002;4.096;2024-01-30T00:09:13;11.70;99.90
30385;DHT22;17181;51.002;4.096;2024-01-30T00:11:39;11.70;99.90
30385;DHT22;17181;51.002;4.096;2024-01-30T00:14:05;11.70;99.90
30385;DHT22;17181;51.002;4.096;2024-01-30T00:16:31;11.70;99.90
30385;DHT22;17181;51.002;4.096;2024-01-30T00:18:57;11.70;99.90
30385;DHT22;17181;51.002;4.096;2024-01-30T00:21:23;11.70;99.90
30385;DHT22;17181;51.002;4.096;2024-01-30T00:23:49;11.70;99.90
30385;DHT22;17181;51.002;4.096;2024-01-30T00:26:15;11.70;99.90
30385;DHT22;17181;51.002;4.096;2024-01-30T00:28:41;11.70;99.90
30385;DHT22;17181;51.002;4.096;2024-01-30T00:31:07;11.70;99.90
30385;DHT22;17181;51.002;4.096;2024-01-30T00:33:33;11.70;99.90
30385;DHT22;17181;51.002;4.096;2024-01-30T00:35:59;11.70;99.90
30385;DHT22;17181;51.002;4.096;2024-01-30T00:38:25;11.70;99.90
30385;DHT22;17181;51.002;4.096;2024-01-30T00:40:50;11.70;99.90
30385;DHT22;17181;51.002;4.096;2024-01-30T00:43:16;11.70;99.90
30385;DHT22;17181;51.002;4.096;2024-01-30T00:45:45;11.70;99.90
30385;DHT22;17181;51.002;4.096;2024-01-30T00:48:11;11.70;99.90
30385;DHT22;17181;51.002;4.096;2024-01-30T00:50:37;11.70;99.90
30385;DHT22;17181;51.002;4.096;2024-01-30T00:53:03;11.70;99.90
30385;DHT22;17181;51.002;4.096;2024-01-30T00:55:29;11.70;99.90
30385;DHT22;17181;51.002;4.096;2024-01-30T00:57:54;11.70;99.90
30385;DHT22;17181;51.002;4.096;2024-01-30T01:00:20;11.80;99.90
30385;DHT22;17181;51.002;4.096;2024-01-30T01:02:47;11.80;99.90
30385;DHT22;17181;51.002;4.096;2024-01-30T01:05:13;11.80;99.90
30385;DHT22;17181;51.002;4.096;2024-01-30T01:07:38;11.80;99.90
30385;DHT22;17181;51.002;4.096;2024-01-30T01:10:06;11.80;99.90
30385;DHT22;17181;51.002;4.096;2024-01-30T01:12:32;11.80;99.90
30385;DHT22;17181;51.002;4.096;2024-01-30T01:14:58;11.80;99.90
30385;DHT22;17181;51.002;4.096;2024-01-30T01:17:23;11.80;99.90
30385;DHT22;17181;51.002;4.096;2024-01-30T01:19:49;11.80;99.90
30385;DHT22;17181;51.002;4.096;2024-01-30T01:22:16;11.80;99.90
30385;DHT22;17181;51.002;4.096;2024-01-30T01:24:43;11.90;99.90
30385;DHT22;17181;51.002;4.096;2024-01-30T01:27:09;11.90;99.90
30385;DHT22;17181;51.002;4.096;2024-01-30T01:29:35;11.90;99.90
30385;DHT22;17181;51.002;4.096;2024-01-30T01:32:01;11.90;99.90
30385;DHT22;17181;51.002;4.096;2024-01-30T01:34:26;11.90;99.90
30385;DHT22;17181;51.002;4.096;2024-01-30T01:36:52;11.90;99.90
30385;DHT22;17181;51.002;4.096;2024-01-30T01:39:21;11.90;99.90
30385;DHT22;17181;51.002;4.096;2024-01-30T01:41:48;11.90;99.90
30385;DHT22;17181;51.002;4.096;2024-01-30T01:44:14;11.90;99.90
30385;DHT22;17181;51.002;4.096;2024-01-30T01:46:40;11.90;99.90
30385;DHT22;17181;51.002;4.096;2024-01-30T01:49:06;11.80;99.90
30385;DHT22;17181;51.002;4.096;2024-01-30T01:51:35;11.80;99.90
30385;DHT22;17181;51.002;4.096;2024-01-30T01:54:05;11.80;99.90
30385;DHT22;17181;51.002;4.096;2024-01-30T01:56:31;11.80;99.90
30385;DHT22;17181;51.002;4.096;2024-01-30T01:59:00;11.80;99.90
30385;DHT22;17181;51.002;4.096;2024-01-30T02:01:31;11.80;99.90
30385;DHT22;17181;51.002;4.096;2024-01-30T02:03:58;11.80;99.90
30385;DHT22;17181;51.002;4.096;2024-01-30T02:06:24;11.80;99.90
30385;DHT22;17181;51.002;4.096;2024-01-30T02:08:50;11.80;99.90
30385;DHT22;17181;51.002;4.096;2024-01-30T02:11:16;11.90;99.90
30385;DHT22;17181;51.002;4.096;2024-01-30T02:13:42;11.90;99.90
30385;DHT22;17181;51.002;4.096;2024-01-30T02:16:08;11.90;99.90
30385;DHT22;17181;51.002;4.096;2024-01-30T02:18:34;11.90;99.90
30385;DHT22;17181;51.002;4.096;2024-01-30T02:21:04;11.90;99.90
30385;DHT22;17181;51.002;4.096;2024-01-30T02:23:30;11.90;99.90
30385;DHT22;17181;51.002;4.096;2024-01-30T02:25:58;12.00;99.90
30385;DHT22;17181;51.002;4.096;2024-01-30T02:28:23;12.00;99.90
30385;DHT22;17181;51.002;4.096;2024-01-30T02:30:49;12.00;99.90
30385;DHT22;17181;51.002;4.096;2024-01-30T02:33:15;12.00;99.90
30385;DHT22;17181;51.002;4.096;2024-01-30T02:35:41;12.00;99.90
30385;DHT22;17181;51.002;4.096;2024-01-30T02:38:06;12.00;99.90
30385;DHT22;17181;51.002;4.096;2024-01-30T02:40:32;12.00;99.90
30385;DHT22;17181;51.002;4.096;2024-01-30T02:42:59;12.00;99.90
30385;DHT22;17181;51.002;4.096;2024-01-30T02:45:25;12.00;99.90
30385;DHT22;17181;51.002;4.096;2024-01-30T02:47:51;12.10;99.90
30385;DHT22;17181;51.002;4.096;2024-01-30T02:50:20;12.10;99.90
30385;DHT22;17181;51.002;4.096;2024-01-30T02:52:46;12.10;99.90
30385;DHT22;17181;51.002;4.096;2024-01-30T02:55:12;12.10;99.90
30385;DHT22;17181;51.002;4.096;2024-01-30T02:57:38;12.10;99.90
30385;DHT22;17181;51.002;4.096;2024-01-30T03:00:06;12.10;99.90
30385;DHT22;17181;51.002;4.096;2024-01-30T03:02:35;12.10;99.90
30385;DHT22;17181;51.002;4.096;2024-01-30T03:05:01;12.10;99.90
30385;DHT22;17181;51.002;4.096;2024-01-30T03:07:27;12.10;99.90
30385;DHT22;17181;51.002;4.096;2024-01-30T03:09:53;12.10;99.90
30385;DHT22;17181;51.002;4.096;2024-01-30T03:12:21;12.20;99.90
30385;DHT22;17181;51.002;4.096;2024-01-30T03:14:47;12.20;99.90
30385;DHT22;17181;51.002;4.096;2024-01-30T03:17:13;12.20;99.90
30385;DHT22;17181;51.002;4.096;2024-01-30T03:19:39;12.20;99.90
30385;DHT22;17181;51.002;4.096;2024-01-30T03:22:05;12.20;99.90
30385;DHT22;17181;51.002;4.096;2024-01-30T03:24:30;12.20;99.90
30385;DHT22;17181;51.002;4.096;2024-01-30T03:26:56;12.20;99.90
30385;DHT22;17181;51.002;4.096;2024-01-30T03:29:22;12.20;99.90
30385;DHT22;17181;51.002;4.096;2024-01-30T03:31:48;12.20;99.90
30385;DHT22;17181;51.002;4.096;2024-01-30T03:34:14;12.20;99.90
30385;DHT22;17181;51.002;4.096;2024-01-30T03:36:39;12.20;99.90
30385;DHT22;17181;51.002;4.096;2024-01-30T03:39:05;12.20;99.90
30385;DHT22;17181;51.002;4.096;2024-01-30T03:41:31;12.20;99.90
30385;DHT22;17181;51.002;4.096;2024-01-30T03:43:57;12.20;99.90
30385;DHT22;17181;51.002;4.096;2024-01-30T03:46:23;12.20;99.90
30385;DHT22;17181;51.002;4.096;2024-01-30T03:48:50;12.20;99.90
30385;DHT22;17181;51.002;4.096;2024-01-30T03:51:15;12.20;99.90
30385;DHT22;17181;51.002;4.096;2024-01-30T03:53:42;12.30;99.90
30385;DHT22;17181;51.002;4.096;2024-01-30T03:56:09;12.20;99.90
30385;DHT22;17181;51.002;4.096;2024-01-30T03:58:34;12.20;99.90
30385;DHT22;17181;51.002;4.096;2024-01-30T04:01:00;12.20;99.90
30385;DHT22;17181;51.002;4.096;2024-01-30T04:03:26;12.20;99.90
30385;DHT22;17181;51.002;4.096;2024-01-30T04:05:52;12.20;99.90
30385;DHT22;17181;51.002;4.096;2024-01-30T04:08:19;12.20;99.90
30385;DHT22;17181;51.002;4.096;2024-01-30T04:10:47;12.20;99.90
30385;DHT22;17181;51.002;4.096;2024-01-30T04:13:13;12.20;99.90
30385;DHT22;17181;51.002;4.096;2024-01-30T04:15:39;12.20;99.90
30385;DHT22;17181;51.002;4.096;2024-01-30T04:18:05;12.10;99.90
30385;DHT22;17181;51.002;4.096;2024-01-30T04:20:31;12.10;99.90
30385;DHT22;17181;51.002;4.096;2024-01-30T04:22:57;12.10;99.90
30385;DHT22;17181;51.002;4.096;2024-01-30T04:25:22;12.10;99.90
30385;DHT22;17181;51.002;4.096;2024-01-30T04:27:48;12.10;99.90
30385;DHT22;17181;51.002;4.096;2024-01-30T04:30:14;12.10;99.90
30385;DHT22;17181;51.002;4.096;2024-01-30T04:32:40;12.10;99.90
30385;DHT22;17181;51.002;4.096;2024-01-30T04:35:06;12.10;99.90
30385;DHT22;17181;51.002;4.096;2024-01-30T04:37:32;12.10;99.90
30385;DHT22;17181;51.002;4.096;2024-01-30T04:39:58;12.10;99.90
30385;DHT22;17181;51.002;4.096;2024-01-30T04:42:24;12.10;99.90
30385;DHT22;17181;51.002;4.096;2024-01-30T04:44:50;12.10;99.90
30385;DHT22;17181;51.002;4.096;2024-01-30T04:47:16;12.10;99.90
30385;DHT22;17181;51.002;4.096;2024-01-30T04:49:42;12.00;99.90
30385;DHT22;17181;51.002;4.096;2024-01-30T04:52:08;12.00;99.90
30385;DHT22;17181;51.002;4.096;2024-01-30T04:54:35;12.00;99.90
30385;DHT22;17181;51.002;4.096;2024-01-30T04:57:04;12.00;99.90
30385;DHT22;17181;51.002;4.096;2024-01-30T04:59:34;12.00;99.90
30385;DHT22;17181;51.002;4.096;2024-01-30T05:02:00;12.00;99.90
30385;DHT22;17181;51.002;4.096;2024-01-30T05:04:26;12.00;99.90
30385;DHT22;17181;51.002;4.096;2024-01-30T05:06:52;12.00;99.90
30385;DHT22;17181;51.002;4.096;2024-01-30T05:09:18;12.00;99.90
30385;DHT22;17181;51.002;4.096;2024-01-30T05:11:44;12.00;99.90
30385;DHT22;17181;51.002;4.096;2024-01-30T05:14:10;12.00;99.90
30385;DHT22;17181;51.002;4.096;2024-01-30T05:16:37;12.00;99.90
30385;DHT22;17181;51.002;4.096;2024-01-30T05:19:03;12.00;99.90
30385;DHT22;17181;51.002;4.096;2024-01-30T05:21:29;12.00;99.90
30385;DHT22;17181;51.002;4.096;2024-01-30T05:23:54;12.00;99.90
30385;DHT22;17181;51.002;4.096;2024-01-30T05:26:20;12.00;99.90
30385;DHT22;17181;51.002;4.096;2024-01-30T05:28:48;12.00;99.90
30385;DHT22;17181;51.002;4.096;2024-01-30T05:31:14;12.00;99.90
30385;DHT22;17181;51.002;4.096;2024-01-30T05:33:40;12.00;99.90
30385;DHT22;17181;51.002;4.096;2024-01-30T05:36:06;12.00;99.90
30385;DHT22;17181;51.002;4.096;2024-01-30T05:38:32;12.00;99.90
30385;DHT22;17181;51.002;4.096;2024-01-30T05:40:58;12.00;99.90
30385;DHT22;17181;51.002;4.096;2024-01-30T05:43:24;12.00;99.90
30385;DHT22;17181;51.002;4.096;2024-01-30T05:45:51;12.00;99.90
30385;DHT22;17181;51.002;4.096;2024-01-30T05:48:17;12.00;99.90
30385;DHT22;17181;51.002;4.096;2024-01-30T05:50:43;12.00;99.90
30385;DHT22;17181;51.002;4.096;2024-01-30T05:53:09;11.90;99.90
30385;DHT22;17181;51.002;4.096;2024-01-30T05:55:35;11.90;99.90
30385;DHT22;17181;51.002;4.096;2024-01-30T05:58:00;11.90;99.90
30385;DHT22;17181;51.002;4.096;2024-01-30T06:00:26;11.90;99.90
30385;DHT22;17181;51.002;4.096;2024-01-30T06:02:52;11.90;99.90
30385;DHT22;17181;51.002;4.096;2024-01-30T06:05:18;11.80;99.90
30385;DHT22;17181;51.002;4.096;2024-01-30T06:07:44;11.80;99.90
30385;DHT22;17181;51.002;4.096;2024-01-30T06:10:10;11.80;99.90
30385;DHT22;17181;51.002;4.096;2024-01-30T06:12:37;11.80;99.90
30385;DHT22;17181;51.002;4.096;2024-01-30T06:15:03;11.80;99.90
30385;DHT22;17181;51.002;4.096;2024-01-30T06:17:29;11.80;99.90
30385;DHT22;17181;51.002;4.096;2024-01-30T06:19:55;11.80;99.90
30385;DHT22;17181;51.002;4.096;2024-01-30T06:22:21;11.80;99.90
30385;DHT22;17181;51.002;4.096;2024-01-30T06:24:46;11.80;99.90
30385;DHT22;17181;51.002;4.096;2024-01-30T06:27:15;11.90;99.90
30385;DHT22;17181;51.002;4.096;2024-01-30T06:29:42;11.90;99.90
30385;DHT22;17181;51.002;4.096;2024-01-30T06:32:08;11.90;99.90
30385;DHT22;17181;51.002;4.096;2024-01-30T06:34:34;11.90;99.90
30385;DHT22;17181;51.002;4.096;2024-01-30T06:37:00;11.90;99.90
30385;DHT22;17181;51.002;4.096;2024-01-30T06:39:26;11.90;99.90
30385;DHT22;17181;51.002;4.096;2024-01-30T06:41:52;11.90;99.90
30385;DHT22;17181;51.002;4.096;2024-01-30T06:44:18;11.90;99.90
30385;DHT22;17181;51.002;4.096;2024-01-30T06:46:44;11.90;99.90
30385;DHT22;17181;51.002;4.096;2024-01-30T06:49:10;12.00;99.90
30385;DHT22;17181;51.002;4.096;2024-01-30T06:51:36;12.00;99.90
30385;DHT22;17181;51.002;4.096;2024-01-30T06:54:02;12.00;99.90
30385;DHT22;17181;51.002;4.096;2024-01-30T06:56:28;12.00;99.90
30385;DHT22;17181;51.002;4.096;2024-01-30T06:58:54;12.00;99.90
30385;DHT22;17181;51.002;4.096;2024-01-30T07:01:19;12.00;99.90
30385;DHT22;17181;51.002;4.096;2024-01-30T07:03:46;12.10;99.90
30385;DHT22;17181;51.002;4.096;2024-01-30T07:06:12;12.10;99.90
30385;DHT22;17181;51.002;4.096;2024-01-30T07:08:38;12.10;99.90
30385;DHT22;17181;51.002;4.096;2024-01-30T07:11:07;12.10;99.90
30385;DHT22;17181;51.002;4.096;2024-01-30T07:13:34;12.10;99.90
30385;DHT22;17181;51.002;4.096;2024-01-30T07:16:00;12.10;99.90
30385;DHT22;17181;51.002;4.096;2024-01-30T07:18:26;12.10;99.90
30385;DHT22;17181;51.002;4.096;2024-01-30T07:20:51;12.20;99.90
30385;DHT22;17181;51.002;4.096;2024-01-30T07:23:17;12.20;99.90
30385;DHT22;17181;51.002;4.096;2024-01-30T07:25:44;12.20;99.90
30385;DHT22;17181;51.002;4.096;2024-01-30T07:28:19;12.20;99.90
30385;DHT22;17181;51.002;4.096;2024-01-30T07:30:45;12.20;99.90
30385;DHT22;17181;51.002;4.096;2024-01-30T07:33:11;12.20;99.90
30385;DHT22;17181;51.002;4.096;2024-01-30T07:35:36;12.20;99.90
30385;DHT22;17181;51.002;4.096;2024-01-30T07:38:02;12.20;99.90
30385;DHT22;17181;51.002;4.096;2024-01-30T07:40:28;12.30;99.90
30385;DHT22;17181;51.002;4.096;2024-01-30T07:42:54;12.30;99.90
30385;DHT22;17181;51.002;4.096;2024-01-30T07:45:20;12.30;99.90
30385;DHT22;17181;51.002;4.096;2024-01-30T07:47:51;12.30;99.90
30385;DHT22;17181;51.002;4.096;2024-01-30T07:50:17;12.30;99.90
30385;DHT22;17181;51.002;4.096;2024-01-30T07:52:44;12.30;99.90
30385;DHT22;17181;51.002;4.096;2024-01-30T07:55:10;12.30;99.90
30385;DHT22;17181;51.002;4.096;2024-01-30T07:57:38;12.30;99.90
30385;DHT22;17181;51.002;4.096;2024-01-30T08:00:05;12.30;99.90
30385;DHT22;17181;51.002;4.096;2024-01-30T08:02:34;12.40;99.90
30385;DHT22;17181;51.002;4.096;2024-01-30T08:04:59;12.40;99.90
30385;DHT22;17181;51.002;4.096;2024-01-30T08:07:25;12.40;99.90
30385;DHT22;17181;51.002;4.096;2024-01-30T08:09:51;12.40;99.90
30385;DHT22;17181;51.002;4.096;2024-01-30T08:12:17;12.40;99.90
30385;DHT22;17181;51.002;4.096;2024-01-30T08:14:43;12.40;99.90
30385;DHT22;17181;51.002;4.096;2024-01-30T08:17:10;12.40;99.90
30385;DHT22;17181;51.002;4.096;2024-01-30T08:19:36;12.40;99.90
30385;DHT22;17181;51.002;4.096;2024-01-30T08:22:02;12.50;99.90
30385;DHT22;17181;51.002;4.096;2024-01-30T08:24:27;12.40;99.90
30385;DHT22;17181;51.002;4.096;2024-01-30T08:26:53;12.50;99.90
30385;DHT22;17181;51.002;4.096;2024-01-30T08:29:19;12.50;99.90
30385;DHT22;17181;51.002;4.096;2024-01-30T08:31:45;12.50;99.90
30385;DHT22;17181;51.002;4.096;2024-01-30T08:34:11;12.50;99.90
30385;DHT22;17181;51.002;4.096;2024-01-30T08:36:37;12.50;99.90
30385;DHT22;17181;51.002;4.096;2024-01-30T08:39:03;12.50;99.90
30385;DHT22;17181;51.002;4.096;2024-01-30T08:41:30;12.60;99.90
30385;DHT22;17181;51.002;4.096;2024-01-30T08:43:56;12.60;99.90
30385;DHT22;17181;51.002;4.096;2024-01-30T08:46:22;12.60;99.90
30385;DHT22;17181;51.002;4.096;2024-01-30T08:48:48;12.60;99.90
30385;DHT22;17181;51.002;4.096;2024-01-30T08:51:14;12.60;99.90
30385;DHT22;17181;51.002;4.096;2024-01-30T08:53:41;12.60;99.90
30385;DHT22;17181;51.002;4.096;2024-01-30T08:56:07;12.70;99.90
30385;DHT22;17181;51.002;4.096;2024-01-30T08:58:33;12.70;99.90
30385;DHT22;17181;51.002;4.096;2024-01-30T09:00:58;12.60;99.90
30385;DHT22;17181;51.002;4.096;2024-01-30T09:03:24;12.70;99.90
30385;DHT22;17181;51.002;4.096;2024-01-30T09:05:50;12.60;99.90
30385;DHT22;17181;51.002;4.096;2024-01-30T09:08:16;12.60;99.90
30385;DHT22;17181;51.002;4.096;2024-01-30T09:10:42;12.60;99.90
30385;DHT22;17181;51.002;4.096;2024-01-30T09:13:08;12.60;99.90
30385;DHT22;17181;51.002;4.096;2024-01-30T09:15:34;12.60;99.90
30385;DHT22;17181;51.002;4.096;2024-01-30T09:18:00;12.60;99.90
30385;DHT22;17181;51.002;4.096;2024-01-30T09:20:26;12.50;99.90
30385;DHT22;17181;51.002;4.096;2024-01-30T09:22:52;12.50;99.90
30385;DHT22;17181;51.002;4.096;2024-01-30T09:25:18;12.50;99.90
30385;DHT22;17181;51.002;4.096;2024-01-30T09:27:44;12.50;99.90
30385;DHT22;17181;51.002;4.096;2024-01-30T09:30:10;12.50;99.90
30385;DHT22;17181;51.002;4.096;2024-01-30T09:32:36;12.50;99.90
30385;DHT22;17181;51.002;4.096;2024-01-30T09:35:02;12.50;99.90
30385;DHT22;17181;51.002;4.096;2024-01-30T09:37:27;12.60;99.90
30385;DHT22;17181;51.002;4.096;2024-01-30T09:39:53;12.50;99.90
30385;DHT22;17181;51.002;4.096;2024-01-30T09:44:55;12.60;99.90
30385;DHT22;17181;51.002;4.096;2024-01-30T09:47:21;12.70;99.90
30385;DHT22;17181;51.002;4.096;2024-01-30T09:49:48;12.70;99.90
30385;DHT22;17181;51.002;4.096;2024-01-30T09:52:14;12.70;99.90
30385;DHT22;17181;51.002;4.096;2024-01-30T09:54:41;12.70;99.90
30385;DHT22;17181;51.002;4.096;2024-01-30T09:57:07;12.80;99.90
30385;DHT22;17181;51.002;4.096;2024-01-30T09:59:34;12.80;99.90
30385;DHT22;17181;51.002;4.096;2024-01-30T10:02:00;12.90;99.90
30385;DHT22;17181;51.002;4.096;2024-01-30T10:04:27;12.90;99.90
30385;DHT22;17181;51.002;4.096;2024-01-30T10:06:53;12.90;99.90
30385;DHT22;17181;51.002;4.096;2024-01-30T10:09:19;12.90;99.90
30385;DHT22;17181;51.002;4.096;2024-01-30T10:11:45;12.90;99.90
30385;DHT22;17181;51.002;4.096;2024-01-30T10:14:11;12.90;99.90
30385;DHT22;17181;51.002;4.096;2024-01-30T10:16:36;12.70;99.90
30385;DHT22;17181;51.002;4.096;2024-01-30T10:19:02;12.70;99.90
30385;DHT22;17181;51.002;4.096;2024-01-30T10:21:29;12.60;99.90
30385;DHT22;17181;51.002;4.096;2024-01-30T10:23:55;12.50;99.90
30385;DHT22;17181;51.002;4.096;2024-01-30T10:26:21;12.40;99.90
30385;DHT22;17181;51.002;4.096;2024-01-30T10:28:48;12.40;99.90
30385;DHT22;17181;51.002;4.096;2024-01-30T10:31:18;12.40;99.90
30385;DHT22;17181;51.002;4.096;2024-01-30T10:33:45;12.40;99.90
30385;DHT22;17181;51.002;4.096;2024-01-30T10:36:14;12.30;99.90
30385;DHT22;17181;51.002;4.096;2024-01-30T10:38:43;12.30;99.90
30385;DHT22;17181;51.002;4.096;2024-01-30T10:41:13;12.20;99.90
30385;DHT22;17181;51.002;4.096;2024-01-30T10:43:41;12.20;99.90
30385;DHT22;17181;51.002;4.096;2024-01-30T10:46:16;12.20;99.90
30385;DHT22;17181;51.002;4.096;2024-01-30T10:48:44;12.20;99.90
30385;DHT22;17181;51.002;4.096;2024-01-30T10:51:13;12.10;99.90
30385;DHT22;17181;51.002;4.096;2024-01-30T10:53:39;12.10;99.90
30385;DHT22;17181;51.002;4.096;2024-01-30T10:56:08;12.20;99.90
30385;DHT22;17181;51.002;4.096;2024-01-30T10:58:35;12.10;99.90
30385;DHT22;17181;51.002;4.096;2024-01-30T11:01:02;12.10;99.90
30385;DHT22;17181;51.002;4.096;2024-01-30T11:03:29;12.20;99.90
30385;DHT22;17181;51.002;4.096;2024-01-30T11:05:59;12.20;99.90
30385;DHT22;17181;51.002;4.096;2024-01-30T11:08:25;12.30;99.90
30385;DHT22;17181;51.002;4.096;2024-01-30T11:10:57;12.30;99.90
30385;DHT22;17181;51.002;4.096;2024-01-30T11:13:29;12.30;99.90
30385;DHT22;17181;51.002;4.096;2024-01-30T11:15:55;12.40;99.90
30385;DHT22;17181;51.002;4.096;2024-01-30T11:18:24;12.60;99.90
30385;DHT22;17181;51.002;4.096;2024-01-30T11:20:51;12.60;99.90
30385;DHT22;17181;51.002;4.096;2024-01-30T11:23:17;12.70;99.90
30385;DHT22;17181;51.002;4.096;2024-01-30T11:25:43;12.70;99.90
30385;DHT22;17181;51.002;4.096;2024-01-30T11:28:16;12.70;99.90
30385;DHT22;17181;51.002;4.096;2024-01-30T11:30:42;12.80;99.90
30385;DHT22;17181;51.002;4.096;2024-01-30T11:33:13;12.70;99.90
30385;DHT22;17181;51.002;4.096;2024-01-30T11:35:40;12.60;99.90
30385;DHT22;17181;51.002;4.096;2024-01-30T11:38:08;12.60;99.90
30385;DHT22;17181;51.002;4.096;2024-01-30T11:40:35;12.50;99.90
30385;DHT22;17181;51.002;4.096;2024-01-30T11:43:02;12.50;99.90
30385;DHT22;17181;51.002;4.096;2024-01-30T11:45:30;12.50;99.90
30385;DHT22;17181;51.002;4.096;2024-01-30T11:47:56;12.50;99.90
30385;DHT22;17181;51.002;4.096;2024-01-30T11:50:22;12.50;99.90
30385;DHT22;17181;51.002;4.096;2024-01-30T11:52:49;12.50;99.90
30385;DHT22;17181;51.002;4.096;2024-01-30T11:55:15;12.50;99.90
30385;DHT22;17181;51.002;4.096;2024-01-30T11:57:41;12.50;99.90
30385;DHT22;17181;51.002;4.096;2024-01-30T12:00:17;12.40;99.90
30385;DHT22;17181;51.002;4.096;2024-01-30T12:02:48;12.40;99.90
30385;DHT22;17181;51.002;4.096;2024-01-30T12:05:14;12.50;99.90
30385;DHT22;17181;51.002;4.096;2024-01-30T12:07:40;12.60;99.90
30385;DHT22;17181;51.002;4.096;2024-01-30T12:10:09;12.60;99.90
30385;DHT22;17181;51.002;4.096;2024-01-30T12:12:35;12.70;99.90
30385;DHT22;17181;51.002;4.096;2024-01-30T12:15:01;12.70;99.90
30385;DHT22;17181;51.002;4.096;2024-01-30T12:17:32;12.70;99.90
30385;DHT22;17181;51.002;4.096;2024-01-30T12:22:38;12.70;99.90
30385;DHT22;17181;51.002;4.096;2024-01-30T12:25:14;12.70;99.90
30385;DHT22;17181;51.002;4.096;2024-01-30T12:27:46;12.70;99.90
30385;DHT22;17181;51.002;4.096;2024-01-30T12:30:14;12.60;99.90
30385;DHT22;17181;51.002;4.096;2024-01-30T12:32:45;12.40;99.90
30385;DHT22;17181;51.002;4.096;2024-01-30T12:35:20;12.30;99.90
30385;DHT22;17181;51.002;4.096;2024-01-30T12:37:47;12.20;99.90
30385;DHT22;17181;51.002;4.096;2024-01-30T12:40:14;12.20;99.90
30385;DHT22;17181;51.002;4.096;2024-01-30T12:42:41;12.10;99.90
30385;DHT22;17181;51.002;4.096;2024-01-30T12:45:08;12.00;99.90
30385;DHT22;17181;51.002;4.096;2024-01-30T12:47:34;12.10;99.90
30385;DHT22;17181;51.002;4.096;2024-01-30T12:50:00;12.10;99.90
30385;DHT22;17181;51.002;4.096;2024-01-30T12:52:26;12.00;99.90
30385;DHT22;17181;51.002;4.096;2024-01-30T12:54:52;11.90;99.90
30385;DHT22;17181;51.002;4.096;2024-01-30T12:57:18;11.80;99.90
30385;DHT22;17181;51.002;4.096;2024-01-30T12:59:45;11.80;99.90
30385;DHT22;17181;51.002;4.096;2024-01-30T13:02:12;11.70;99.90
30385;DHT22;17181;51.002;4.096;2024-01-30T13:04:38;11.60;99.90
30385;DHT22;17181;51.002;4.096;2024-01-30T13:07:04;11.60;99.90
30385;DHT22;17181;51.002;4.096;2024-01-30T13:09:30;11.50;99.90
30385;DHT22;17181;51.002;4.096;2024-01-30T13:11:59;11.50;99.90
30385;DHT22;17181;51.002;4.096;2024-01-30T13:14:25;11.50;99.90
30385;DHT22;17181;51.002;4.096;2024-01-30T13:16:51;11.50;99.90
30385;DHT22;17181;51.002;4.096;2024-01-30T13:19:17;11.40;99.90
30385;DHT22;17181;51.002;4.096;2024-01-30T13:21:43;11.40;99.90
30385;DHT22;17181;51.002;4.096;2024-01-30T13:24:09;11.40;99.90
30385;DHT22;17181;51.002;4.096;2024-01-30T13:26:35;11.30;99.90
30385;DHT22;17181;51.002;4.096;2024-01-30T13:29:01;11.30;99.90
30385;DHT22;17181;51.002;4.096;2024-01-30T13:31:27;11.30;99.90
30385;DHT22;17181;51.002;4.096;2024-01-30T13:33:54;11.30;99.90
30385;DHT22;17181;51.002;4.096;2024-01-30T13:36:20;11.30;99.90
30385;DHT22;17181;51.002;4.096;2024-01-30T13:38:46;11.30;99.90
30385;DHT22;17181;51.002;4.096;2024-01-30T13:41:12;11.30;99.90
30385;DHT22;17181;51.002;4.096;2024-01-30T13:43:38;11.20;99.90
30385;DHT22;17181;51.002;4.096;2024-01-30T13:46:04;11.30;99.90
30385;DHT22;17181;51.002;4.096;2024-01-30T13:48:30;11.30;99.90
30385;DHT22;17181;51.002;4.096;2024-01-30T13:50:56;11.30;99.90
30385;DHT22;17181;51.002;4.096;2024-01-30T13:53:22;11.30;99.90
30385;DHT22;17181;51.002;4.096;2024-01-30T13:55:48;11.30;99.90
30385;DHT22;17181;51.002;4.096;2024-01-30T13:58:14;11.30;99.90
30385;DHT22;17181;51.002;4.096;2024-01-30T14:00:40;11.30;99.90
30385;DHT22;17181;51.002;4.096;2024-01-30T14:03:06;11.20;99.90
30385;DHT22;17181;51.002;4.096;2024-01-30T14:05:32;11.20;99.90
30385;DHT22;17181;51.002;4.096;2024-01-30T14:07:58;11.20;99.90
30385;DHT22;17181;51.002;4.096;2024-01-30T14:10:25;11.20;99.90
30385;DHT22;17181;51.002;4.096;2024-01-30T14:12:51;11.30;99.90
30385;DHT22;17181;51.002;4.096;2024-01-30T14:15:17;11.30;99.90
30385;DHT22;17181;51.002;4.096;2024-01-30T14:17:45;11.30;99.90
30385;DHT22;17181;51.002;4.096;2024-01-30T14:20:14;11.30;99.90
30385;DHT22;17181;51.002;4.096;2024-01-30T14:22:42;11.10;99.90
30385;DHT22;17181;51.002;4.096;2024-01-30T14:25:08;11.10;99.90
30385;DHT22;17181;51.002;4.096;2024-01-30T14:27:35;11.20;99.90
30385;DHT22;17181;51.002;4.096;2024-01-30T14:30:02;11.20;99.90
30385;DHT22;17181;51.002;4.096;2024-01-30T14:32:28;11.20;99.90
30385;DHT22;17181;51.002;4.096;2024-01-30T14:34:54;11.20;99.90
30385;DHT22;17181;51.002;4.096;2024-01-30T14:37:21;11.20;99.90
30385;DHT22;17181;51.002;4.096;2024-01-30T14:39:47;11.10;99.90
30385;DHT22;17181;51.002;4.096;2024-01-30T14:42:14;11.10;99.90
30385;DHT22;17181;51.002;4.096;2024-01-30T14:44:40;11.10;99.90
30385;DHT22;17181;51.002;4.096;2024-01-30T14:47:06;11.10;99.90
30385;DHT22;17181;51.002;4.096;2024-01-30T14:49:31;11.20;99.90
30385;DHT22;17181;51.002;4.096;2024-01-30T14:51:57;11.10;99.90
30385;DHT22;17181;51.002;4.096;2024-01-30T14:54:24;11.10;99.90
30385;DHT22;17181;51.002;4.096;2024-01-30T14:56:51;11.10;99.90
30385;DHT22;17181;51.002;4.096;2024-01-30T14:59:17;11.00;99.90
30385;DHT22;17181;51.002;4.096;2024-01-30T15:01:43;11.00;99.90
30385;DHT22;17181;51.002;4.096;2024-01-30T15:04:10;11.00;99.90
30385;DHT22;17181;51.002;4.096;2024-01-30T15:06:37;10.90;99.90
30385;DHT22;17181;51.002;4.096;2024-01-30T15:09:03;11.00;99.90
30385;DHT22;17181;51.002;4.096;2024-01-30T15:11:29;10.90;99.90
30385;DHT22;17181;51.002;4.096;2024-01-30T15:13:56;11.00;99.90
30385;DHT22;17181;51.002;4.096;2024-01-30T15:16:22;11.00;99.90
30385;DHT22;17181;51.002;4.096;2024-01-30T15:18:47;11.00;99.90
30385;DHT22;17181;51.002;4.096;2024-01-30T15:21:13;11.00;99.90
30385;DHT22;17181;51.002;4.096;2024-01-30T15:23:39;10.90;99.90
30385;DHT22;17181;51.002;4.096;2024-01-30T15:26:05;11.00;99.90
30385;DHT22;17181;51.002;4.096;2024-01-30T15:28:38;10.90;99.90
30385;DHT22;17181;51.002;4.096;2024-01-30T15:31:05;10.90;99.90